sensor_id;sensor_type;location;lat;lon;timestamp;P1;durP1;ratioP1;P2;durP2;ratioP2
1753;SDS011;58380;48.312;9.246;2023-03-30T07:56:55;15.57;;;3.00;;
1753;SDS011;58380;48.312;9.246;2023-03-30T07:59:26;13.57;;;2.67;;
1753;SDS011;58380;48.312;9.246;2023-03-30T08:01:55;15.35;;;2.65;;
1753;SDS011;58380;48.312;9.246;2023-03-30T08:04:21;18.20;;;3.28;;
1753;SDS011;58380;48.312;9.246;2023-03-30T08:07:37;13.18;;;2.60;;
1753;SDS011;58380;48.312;9.246;2023-03-30T08:10:11;12.88;;;3.03;;
1753;SDS011;58380;48.312;9.246;2023-03-30T08:16:21;15.45;;;3.13;;
1753;SDS011;58380;48.312;9.246;2023-03-30T08:22:39;15.02;;;3.13;;
1753;SDS011;58380;48.312;9.246;2023-03-30T08:25:23;11.50;;;2.40;;
1753;SDS011;58380;48.312;9.246;2023-03-30T08:30:24;15.32;;;2.30;;
1753;SDS011;58380;48.312;9.246;2023-03-30T08:32:51;11.15;;;1.95;;
1753;SDS011;58380;48.312;9.246;2023-03-30T08:37:43;13.25;;;2.72;;
1753;SDS011;58380;48.312;9.246;2023-03-30T08:40:12;6.68;;;1.92;;
1753;SDS011;58380;48.312;9.246;2023-03-30T08:45:37;9.90;;;2.60;;
1753;SDS011;58380;48.312;9.246;2023-03-30T08:48:26;8.27;;;2.17;;
1753;SDS011;58380;48.312;9.246;2023-03-30T08:51:01;11.80;;;1.88;;
1753;SDS011;58380;48.312;9.246;2023-03-30T08:53:32;8.98;;;2.28;;
1753;SDS011;58380;48.312;9.246;2023-03-30T08:58:42;11.70;;;2.22;;
1753;SDS011;58380;48.312;9.246;2023-03-30T09:01:43;8.02;;;1.83;;
1753;SDS011;58380;48.312;9.246;2023-03-30T09:10:08;13.43;;;2.33;;
1753;SDS011;58380;48.312;9.246;2023-03-30T09:12:47;9.85;;;2.42;;
1753;SDS011;58380;48.312;9.246;2023-03-30T09:18:08;8.60;;;2.60;;
1753;SDS011;58380;48.312;9.246;2023-03-30T09:20:49;7.57;;;2.95;;
1753;SDS011;58380;48.312;9.246;2023-03-30T09:23:18;8.45;;;3.10;;
1753;SDS011;58380;48.312;9.246;2023-03-30T09:28:43;10.35;;;2.70;;
1753;SDS011;58380;48.312;9.246;2023-03-30T09:31:27;11.13;;;2.85;;
1753;SDS011;58380;48.312;9.246;2023-03-30T09:34:13;8.25;;;1.95;;
1753;SDS011;58380;48.312;9.246;2023-03-30T09:39:30;5.97;;;1.77;;
1753;SDS011;58380;48.312;9.246;2023-03-30T09:44:35;9.30;;;1.77;;
1753;SDS011;58380;48.312;9.246;2023-03-30T09:47:22;7.30;;;2.67;;
1753;SDS011;58380;48.312;9.246;2023-03-30T09:49:56;6.53;;;2.70;;
1753;SDS011;58380;48.312;9.246;2023-03-30T09:52:29;6.33;;;2.60;;
1753;SDS011;58380;48.312;9.246;2023-03-30T09:57:44;5.57;;;2.50;;
1753;SDS011;58380;48.312;9.246;2023-03-30T10:02:56;12.82;;;4.28;;
1753;SDS011;58380;48.312;9.246;2023-03-30T10:05:27;12.02;;;6.28;;
1753;SDS011;58380;48.312;9.246;2023-03-30T10:08:00;14.30;;;5.85;;
1753;SDS011;58380;48.312;9.246;2023-03-30T10:10:36;12.13;;;5.25;;
1753;SDS011;58380;48.312;9.246;2023-03-30T10:13:12;12.55;;;5.65;;
1753;SDS011;58380;48.312;9.246;2023-03-30T10:15:41;20.83;;;7.07;;
1753;SDS011;58380;48.312;9.246;2023-03-30T10:21:02;18.20;;;8.52;;
1753;SDS011;58380;48.312;9.246;2023-03-30T10:23:33;12.07;;;6.05;;
1753;SDS011;58380;48.312;9.246;2023-03-30T10:26:16;17.10;;;8.38;;
1753;SDS011;58380;48.312;9.246;2023-03-30T10:28:50;10.80;;;3.97;;
1753;SDS011;58380;48.312;9.246;2023-03-30T10:31:25;13.35;;;6.40;;
1753;SDS011;58380;48.312;9.246;2023-03-30T10:33:53;11.38;;;5.07;;
1753;SDS011;58380;48.312;9.246;2023-03-30T10:36:24;10.07;;;4.03;;
1753;SDS011;58380;48.312;9.246;2023-03-30T10:39:00;12.25;;;3.72;;
1753;SDS011;58380;48.312;9.246;2023-03-30T10:41:36;9.25;;;3.88;;
1753;SDS011;58380;48.312;9.246;2023-03-30T10:44:29;7.35;;;4.18;;
1753;SDS011;58380;48.312;9.246;2023-03-30T10:56:35;5.45;;;2.75;;
1753;SDS011;58380;48.312;9.246;2023-03-30T11:05:32;7.13;;;2.70;;
1753;SDS011;58380;48.312;9.246;2023-03-30T11:08:05;5.82;;;2.55;;
1753;SDS011;58380;48.312;9.246;2023-03-30T11:10:44;5.70;;;2.20;;
1753;SDS011;58380;48.312;9.246;2023-03-30T11:16:11;15.95;;;5.57;;
1753;SDS011;58380;48.312;9.246;2023-03-30T11:21:54;18.95;;;5.82;;
1753;SDS011;58380;48.312;9.246;2023-03-30T11:24:28;9.38;;;3.42;;
1753;SDS011;58380;48.312;9.246;2023-03-30T11:26:56;10.38;;;2.35;;
1753;SDS011;58380;48.312;9.246;2023-03-30T11:29:35;16.30;;;5.20;;
1753;SDS011;58380;48.312;9.246;2023-03-30T11:32:13;12.15;;;3.33;;
1753;SDS011;58380;48.312;9.246;2023-03-30T11:37:48;11.00;;;3.60;;
1753;SDS011;58380;48.312;9.246;2023-03-30T11:40:36;5.05;;;2.30;;
1753;SDS011;58380;48.312;9.246;2023-03-30T11:43:15;8.18;;;3.60;;
1753;SDS011;58380;48.312;9.246;2023-03-30T11:45:51;11.00;;;3.03;;
1753;SDS011;58380;48.312;9.246;2023-03-30T11:54:32;9.07;;;2.63;;
1753;SDS011;58380;48.312;9.246;2023-03-30T11:57:23;6.43;;;2.60;;
1753;SDS011;58380;48.312;9.246;2023-03-30T12:00:17;10.10;;;2.90;;
1753;SDS011;58380;48.312;9.246;2023-03-30T12:08:53;8.57;;;2.70;;
1753;SDS011;58380;48.312;9.246;2023-03-30T12:11:51;6.38;;;2.53;;
1753;SDS011;58380;48.312;9.246;2023-03-30T12:14:31;10.43;;;3.25;;
1753;SDS011;58380;48.312;9.246;2023-03-30T12:17:39;9.35;;;3.22;;
1753;SDS011;58380;48.312;9.246;2023-03-30T12:20:37;9.23;;;4.10;;
1753;SDS011;58380;48.312;9.246;2023-03-30T12:23:36;14.15;;;3.67;;
1753;SDS011;58380;48.312;9.246;2023-03-30T12:26:23;9.15;;;3.58;;
1753;SDS011;58380;48.312;9.246;2023-03-30T12:32:02;10.95;;;4.22;;
1753;SDS011;58380;48.312;9.246;2023-03-30T12:34:32;14.95;;;3.60;;
1753;SDS011;58380;48.312;9.246;2023-03-30T12:37:05;11.50;;;4.03;;
1753;SDS011;58380;48.312;9.246;2023-03-30T12:39:31;11.32;;;3.88;;
1753;SDS011;58380;48.312;9.246;2023-03-30T12:42:15;6.85;;;3.10;;
1753;SDS011;58380;48.312;9.246;2023-03-30T12:51:21;7.68;;;3.22;;
1753;SDS011;58380;48.312;9.246;2023-03-30T12:54:16;5.75;;;2.65;;
1753;SDS011;58380;48.312;9.246;2023-03-30T12:57:07;10.13;;;3.35;;
1753;SDS011;58380;48.312;9.246;2023-03-30T13:02:57;8.88;;;3.30;;
1753;SDS011;58380;48.312;9.246;2023-03-30T13:05:47;10.82;;;3.90;;
1753;SDS011;58380;48.312;9.246;2023-03-30T13:08:29;9.35;;;2.78;;
1753;SDS011;58380;48.312;9.246;2023-03-30T13:11:11;7.15;;;2.35;;
1753;SDS011;58380;48.312;9.246;2023-03-30T13:22:34;8.70;;;2.75;;
1753;SDS011;58380;48.312;9.246;2023-03-30T13:29:37;7.65;;;2.55;;
1753;SDS011;58380;48.312;9.246;2023-03-30T13:32:17;5.88;;;2.50;;
1753;SDS011;58380;48.312;9.246;2023-03-30T13:35:03;6.22;;;1.92;;
1753;SDS011;58380;48.312;9.246;2023-03-30T13:49:38;7.53;;;2.20;;
1753;SDS011;58380;48.312;9.246;2023-03-30T13:52:27;7.03;;;2.10;;
1753;SDS011;58380;48.312;9.246;2023-03-30T13:55:09;7.97;;;1.67;;
1753;SDS011;58380;48.312;9.246;2023-03-30T13:57:46;2.75;;;1.50;;
1753;SDS011;58380;48.312;9.246;2023-03-30T14:06:01;5.57;;;1.60;;
1753;SDS011;58380;48.312;9.246;2023-03-30T14:08:47;5.43;;;2.00;;
1753;SDS011;58380;48.312;9.246;2023-03-30T14:11:22;4.63;;;1.90;;
1753;SDS011;58380;48.312;9.246;2023-03-30T14:14:01;6.22;;;1.80;;
1753;SDS011;58380;48.312;9.246;2023-03-30T14:16:36;6.78;;;1.42;;
1753;SDS011;58380;48.312;9.246;2023-03-30T14:19:07;7.03;;;2.42;;
1753;SDS011;58380;48.312;9.246;2023-03-30T14:21:44;5.05;;;1.40;;
1753;SDS011;58380;48.312;9.246;2023-03-30T14:24:12;6.53;;;1.40;;
1753;SDS011;58380;48.312;9.246;2023-03-30T14:26:50;2.50;;;1.25;;
1753;SDS011;58380;48.312;9.246;2023-03-30T14:29:16;5.20;;;1.47;;
1753;SDS011;58380;48.312;9.246;2023-03-30T14:31:45;3.78;;;1.20;;
1753;SDS011;58380;48.312;9.246;2023-03-30T14:37:14;5.47;;;1.23;;
1753;SDS011;58380;48.312;9.246;2023-03-30T14:39:39;5.97;;;0.95;;
1753;SDS011;58380;48.312;9.246;2023-03-30T14:42:16;2.78;;;1.20;;
1753;SDS011;58380;48.312;9.246;2023-03-30T14:44:52;4.07;;;1.20;;
1753;SDS011;58380;48.312;9.246;2023-03-30T14:47:21;6.40;;;1.30;;
1753;SDS011;58380;48.312;9.246;2023-03-30T14:49:50;3.92;;;1.58;;
1753;SDS011;58380;48.312;9.246;2023-03-30T14:52:24;5.57;;;1.02;;
1753;SDS011;58380;48.312;9.246;2023-03-30T14:54:56;3.08;;;1.20;;
1753;SDS011;58380;48.312;9.246;2023-03-30T14:57:23;2.72;;;1.30;;
1753;SDS011;58380;48.312;9.246;2023-03-30T14:59:51;5.03;;;1.65;;
1753;SDS011;58380;48.312;9.246;2023-03-30T15:02:24;4.97;;;1.58;;
1753;SDS011;58380;48.312;9.246;2023-03-30T15:04:54;2.28;;;0.98;;
1753;SDS011;58380;48.312;9.246;2023-03-30T15:07:22;3.80;;;1.50;;
1753;SDS011;58380;48.312;9.246;2023-03-30T15:09:53;3.17;;;1.02;;
1753;SDS011;58380;48.312;9.246;2023-03-30T15:15:02;1.88;;;0.70;;
1753;SDS011;58380;48.312;9.246;2023-03-30T15:17:32;4.57;;;1.10;;
1753;SDS011;58380;48.312;9.246;2023-03-30T15:20:01;0.85;;;0.50;;
1753;SDS011;58380;48.312;9.246;2023-03-30T15:22:34;0.88;;;0.50;;
1753;SDS011;58380;48.312;9.246;2023-03-30T15:25:06;2.10;;;0.50;;
1753;SDS011;58380;48.312;9.246;2023-03-30T15:27:36;3.75;;;0.57;;
1753;SDS011;58380;48.312;9.246;2023-03-30T15:30:05;1.58;;;0.50;;
1753;SDS011;58380;48.312;9.246;2023-03-30T15:32:40;2.47;;;0.50;;
1753;SDS011;58380;48.312;9.246;2023-03-30T15:37:48;2.17;;;0.50;;
1753;SDS011;58380;48.312;9.246;2023-03-30T15:43:24;2.60;;;0.63;;
1753;SDS011;58380;48.312;9.246;2023-03-30T15:46:01;5.20;;;0.80;;
1753;SDS011;58380;48.312;9.246;2023-03-30T15:51:16;5.00;;;0.70;;
1753;SDS011;58380;48.312;9.246;2023-03-30T16:02:13;2.25;;;0.75;;
1753;SDS011;58380;48.312;9.246;2023-03-30T16:05:02;0.93;;;0.60;;
1753;SDS011;58380;48.312;9.246;2023-03-30T16:07:30;2.38;;;0.60;;
1753;SDS011;58380;48.312;9.246;2023-03-30T16:09:56;1.52;;;0.73;;
1753;SDS011;58380;48.312;9.246;2023-03-30T16:12:25;2.17;;;0.63;;
1753;SDS011;58380;48.312;9.246;2023-03-30T16:14:54;3.17;;;0.70;;
1753;SDS011;58380;48.312;9.246;2023-03-30T16:17:20;1.65;;;0.60;;
1753;SDS011;58380;48.312;9.246;2023-03-30T16:19:46;2.28;;;0.70;;
1753;SDS011;58380;48.312;9.246;2023-03-30T16:22:12;2.72;;;0.93;;
1753;SDS011;58380;48.312;9.246;2023-03-30T16:24:39;1.73;;;0.60;;
1753;SDS011;58380;48.312;9.246;2023-03-30T16:27:06;3.92;;;1.00;;
1753;SDS011;58380;48.312;9.246;2023-03-30T16:29:34;4.90;;;1.20;;
1753;SDS011;58380;48.312;9.246;2023-03-30T16:31:59;4.50;;;0.60;;
1753;SDS011;58380;48.312;9.246;2023-03-30T16:34:25;1.70;;;0.70;;
1753;SDS011;58380;48.312;9.246;2023-03-30T16:36:50;2.77;;;1.33;;
1753;SDS011;58380;48.312;9.246;2023-03-30T16:41:51;2.15;;;0.85;;
1753;SDS011;58380;48.312;9.246;2023-03-30T16:44:18;1.98;;;1.00;;
1753;SDS011;58380;48.312;9.246;2023-03-30T16:46:47;2.65;;;0.65;;
1753;SDS011;58380;48.312;9.246;2023-03-30T16:49:18;5.47;;;0.90;;
1753;SDS011;58380;48.312;9.246;2023-03-30T16:51:49;2.33;;;0.60;;
1753;SDS011;58380;48.312;9.246;2023-03-30T16:54:16;2.70;;;0.73;;
1753;SDS011;58380;48.312;9.246;2023-03-30T16:56:43;2.58;;;0.80;;
1753;SDS011;58380;48.312;9.246;2023-03-30T16:59:13;4.18;;;1.35;;
1753;SDS011;58380;48.312;9.246;2023-03-30T17:01:47;4.15;;;1.33;;
1753;SDS011;58380;48.312;9.246;2023-03-30T17:04:12;6.03;;;1.40;;
1753;SDS011;58380;48.312;9.246;2023-03-30T17:06:38;4.93;;;1.00;;
1753;SDS011;58380;48.312;9.246;2023-03-30T17:09:03;5.57;;;1.67;;
1753;SDS011;58380;48.312;9.246;2023-03-30T17:11:31;4.63;;;1.20;;
1753;SDS011;58380;48.312;9.246;2023-03-30T17:13:56;2.27;;;0.77;;
1753;SDS011;58380;48.312;9.246;2023-03-30T17:16:22;3.77;;;1.17;;
1753;SDS011;58380;48.312;9.246;2023-03-30T17:18:51;2.15;;;0.80;;
1753;SDS011;58380;48.312;9.246;2023-03-30T17:21:16;2.03;;;0.80;;
1753;SDS011;58380;48.312;9.246;2023-03-30T17:23:42;2.37;;;0.90;;
1753;SDS011;58380;48.312;9.246;2023-03-30T17:26:09;5.25;;;1.15;;
1753;SDS011;58380;48.312;9.246;2023-03-30T17:28:38;6.55;;;2.50;;
1753;SDS011;58380;48.312;9.246;2023-03-30T17:33:36;2.88;;;1.27;;
1753;SDS011;58380;48.312;9.246;2023-03-30T17:36:03;6.63;;;1.33;;
1753;SDS011;58380;48.312;9.246;2023-03-30T17:38:36;5.40;;;1.30;;
1753;SDS011;58380;48.312;9.246;2023-03-30T17:41:02;6.00;;;1.48;;
1753;SDS011;58380;48.312;9.246;2023-03-30T17:43:27;3.10;;;0.88;;
1753;SDS011;58380;48.312;9.246;2023-03-30T17:45:53;5.05;;;1.15;;
1753;SDS011;58380;48.312;9.246;2023-03-30T17:48:19;4.40;;;0.90;;
1753;SDS011;58380;48.312;9.246;2023-03-30T17:50:49;3.95;;;1.20;;
1753;SDS011;58380;48.312;9.246;2023-03-30T17:53:15;4.45;;;1.10;;
1753;SDS011;58380;48.312;9.246;2023-03-30T17:55:44;3.28;;;1.20;;
1753;SDS011;58380;48.312;9.246;2023-03-30T17:58:17;5.22;;;1.48;;
1753;SDS011;58380;48.312;9.246;2023-03-30T18:00:49;4.50;;;1.77;;
1753;SDS011;58380;48.312;9.246;2023-03-30T18:03:17;7.40;;;3.30;;
1753;SDS011;58380;48.312;9.246;2023-03-30T18:05:45;4.80;;;2.00;;
1753;SDS011;58380;48.312;9.246;2023-03-30T18:08:13;7.45;;;2.53;;
1753;SDS011;58380;48.312;9.246;2023-03-30T18:10:45;7.13;;;2.58;;
1753;SDS011;58380;48.312;9.246;2023-03-30T18:13:17;8.35;;;3.53;;
1753;SDS011;58380;48.312;9.246;2023-03-30T18:15:45;4.43;;;2.03;;
1753;SDS011;58380;48.312;9.246;2023-03-30T18:18:13;9.82;;;3.90;;
1753;SDS011;58380;48.312;9.246;2023-03-30T18:20:46;11.75;;;6.38;;
1753;SDS011;58380;48.312;9.246;2023-03-30T18:23:22;11.85;;;6.25;;
1753;SDS011;58380;48.312;9.246;2023-03-30T18:26:31;9.57;;;4.38;;
1753;SDS011;58380;48.312;9.246;2023-03-30T18:29:17;7.75;;;3.25;;
1753;SDS011;58380;48.312;9.246;2023-03-30T18:31:56;6.57;;;2.28;;
1753;SDS011;58380;48.312;9.246;2023-03-30T18:34:41;7.45;;;2.30;;
1753;SDS011;58380;48.312;9.246;2023-03-30T18:37:24;7.13;;;2.22;;
1753;SDS011;58380;48.312;9.246;2023-03-30T18:39:53;7.47;;;2.85;;
1753;SDS011;58380;48.312;9.246;2023-03-30T18:42:27;9.32;;;3.80;;
1753;SDS011;58380;48.312;9.246;2023-03-30T18:44:55;6.88;;;2.55;;
1753;SDS011;58380;48.312;9.246;2023-03-30T18:47:33;6.20;;;2.25;;
1753;SDS011;58380;48.312;9.246;2023-03-30T18:50:15;9.55;;;2.80;;
1753;SDS011;58380;48.312;9.246;2023-03-30T18:53:10;11.65;;;3.10;;
1753;SDS011;58380;48.312;9.246;2023-03-30T18:55:54;12.40;;;4.40;;
1753;SDS011;58380;48.312;9.246;2023-03-30T18:58:38;11.88;;;5.90;;
1753;SDS011;58380;48.312;9.246;2023-03-30T19:01:16;15.88;;;6.03;;
1753;SDS011;58380;48.312;9.246;2023-03-30T19:04:00;37.58;;;14.15;;
1753;SDS011;58380;48.312;9.246;2023-03-30T19:06:26;33.20;;;10.80;;
1753;SDS011;58380;48.312;9.246;2023-03-30T19:09:00;36.38;;;14.05;;
1753;SDS011;58380;48.312;9.246;2023-03-30T19:11:29;31.88;;;11.98;;
1753;SDS011;58380;48.312;9.246;2023-03-30T19:14:03;42.33;;;13.50;;
1753;SDS011;58380;48.312;9.246;2023-03-30T19:16:37;44.72;;;15.40;;
1753;SDS011;58380;48.312;9.246;2023-03-30T19:19:08;42.88;;;16.45;;
1753;SDS011;58380;48.312;9.246;2023-03-30T19:21:39;36.38;;;13.65;;
1753;SDS011;58380;48.312;9.246;2023-03-30T19:24:07;31.20;;;11.85;;
1753;SDS011;58380;48.312;9.246;2023-03-30T19:26:40;23.35;;;9.60;;
1753;SDS011;58380;48.312;9.246;2023-03-30T19:29:06;19.83;;;7.60;;
1753;SDS011;58380;48.312;9.246;2023-03-30T19:31:32;18.27;;;6.87;;
1753;SDS011;58380;48.312;9.246;2023-03-30T19:34:00;13.80;;;6.00;;
1753;SDS011;58380;48.312;9.246;2023-03-30T19:36:25;17.60;;;7.30;;
1753;SDS011;58380;48.312;9.246;2023-03-30T19:38:50;14.57;;;5.43;;
1753;SDS011;58380;48.312;9.246;2023-03-30T19:41:16;14.20;;;6.33;;
1753;SDS011;58380;48.312;9.246;2023-03-30T19:43:41;10.57;;;4.90;;
1753;SDS011;58380;48.312;9.246;2023-03-30T19:46:07;15.02;;;5.03;;
1753;SDS011;58380;48.312;9.246;2023-03-30T19:48:32;11.10;;;5.47;;
1753;SDS011;58380;48.312;9.246;2023-03-30T19:50:58;14.93;;;6.82;;
1753;SDS011;58380;48.312;9.246;2023-03-30T19:53:24;17.23;;;6.37;;
1753;SDS011;58380;48.312;9.246;2023-03-30T19:55:49;14.10;;;5.47;;
1753;SDS011;58380;48.312;9.246;2023-03-30T19:58:15;8.23;;;4.47;;
1753;SDS011;58380;48.312;9.246;2023-03-30T20:00:40;12.13;;;4.90;;
1753;SDS011;58380;48.312;9.246;2023-03-30T20:03:09;15.30;;;5.05;;
1753;SDS011;58380;48.312;9.246;2023-03-30T20:05:36;12.90;;;5.22;;
1753;SDS011;58380;48.312;9.246;2023-03-30T20:08:01;10.35;;;4.80;;
1753;SDS011;58380;48.312;9.246;2023-03-30T20:10:27;14.18;;;5.88;;
1753;SDS011;58380;48.312;9.246;2023-03-30T20:12:53;12.57;;;4.57;;
1753;SDS011;58380;48.312;9.246;2023-03-30T20:15:20;15.30;;;5.53;;
1753;SDS011;58380;48.312;9.246;2023-03-30T20:17:48;12.70;;;5.05;;
1753;SDS011;58380;48.312;9.246;2023-03-30T20:20:20;11.25;;;5.25;;
1753;SDS011;58380;48.312;9.246;2023-03-30T20:22:49;11.07;;;4.40;;
1753;SDS011;58380;48.312;9.246;2023-03-30T20:25:19;14.18;;;5.13;;
1753;SDS011;58380;48.312;9.246;2023-03-30T20:27:46;10.32;;;4.20;;
1753;SDS011;58380;48.312;9.246;2023-03-30T20:30:12;13.30;;;4.18;;
1753;SDS011;58380;48.312;9.246;2023-03-30T20:32:38;8.30;;;3.63;;
1753;SDS011;58380;48.312;9.246;2023-03-30T20:35:04;6.90;;;3.42;;
1753;SDS011;58380;48.312;9.246;2023-03-30T20:37:31;11.35;;;4.35;;
1753;SDS011;58380;48.312;9.246;2023-03-30T20:39:56;8.57;;;3.23;;
1753;SDS011;58380;48.312;9.246;2023-03-30T20:42:28;10.20;;;3.10;;
1753;SDS011;58380;48.312;9.246;2023-03-30T20:44:55;7.22;;;2.85;;
1753;SDS011;58380;48.312;9.246;2023-03-30T20:47:21;9.43;;;2.75;;
1753;SDS011;58380;48.312;9.246;2023-03-30T20:49:49;8.85;;;2.53;;
1753;SDS011;58380;48.312;9.246;2023-03-30T20:52:17;9.60;;;3.00;;
1753;SDS011;58380;48.312;9.246;2023-03-30T20:54:43;7.50;;;2.55;;
1753;SDS011;58380;48.312;9.246;2023-03-30T20:57:09;8.15;;;2.92;;
1753;SDS011;58380;48.312;9.246;2023-03-30T21:02:01;12.65;;;2.40;;
1753;SDS011;58380;48.312;9.246;2023-03-30T21:04:38;7.95;;;2.85;;
1753;SDS011;58380;48.312;9.246;2023-03-30T21:07:12;12.38;;;2.47;;
1753;SDS011;58380;48.312;9.246;2023-03-30T21:09:41;6.57;;;1.60;;
1753;SDS011;58380;48.312;9.246;2023-03-30T21:12:09;8.05;;;1.48;;
1753;SDS011;58380;48.312;9.246;2023-03-30T21:14:43;3.53;;;1.35;;
1753;SDS011;58380;48.312;9.246;2023-03-30T21:17:23;6.63;;;1.27;;
